KJAC/JAC METAR and TAF weather

Enter ICAO airport designator
Station Type Date Time Source
KJAC METAR 2020/08/10 18:56 UTC NOAA

KJAC 101856Z 19009KT 10SM CLR 25/04 A3020 RMK AO2 SLP171 T02500044


Station Type Date Time Source
KJAC Decoded METAR 2020/08/10 18:56 UTC NOAA

Jackson, Jackson Hole Airport, WY, United States (KJAC) 43-36N 110-44W
Aug 10, 2020 - 02:56 PM EDT / 2020.08.10 1856 UTC
Wind: from the S (190 degrees) at 10 MPH (9 KT):0
Visibility: 10 mile(s):0
Sky conditions: clear
Temperature: 77.0 F (25.0 C)
Dew Point: 39.9 F (4.4 C)
Relative Humidity: 26%
Pressure (altimeter): 30.2 in. Hg (1022 hPa)
ob: KJAC 101856Z 19009KT 10SM CLR 25/04 A3020 RMK AO2 SLP171 T02500044
cycle: 19

Station Type Date Time Source
KJAC TAF 2020/08/10 18:27 UTC NOAA

TAF KJAC 101725Z 1018/1118 20009KT P6SM SKC
FM102000 23012G19KT P6SM FEW110
FM110000 26012G18KT P6SM FEW110
FM110200 VRB06KT P6SM SKC
FM111600 22010G17KT P6SM FEW090

Example: see airport list